Time;durP1;ratioP1;P1;durP2;ratioP2;P2;SDS_P1;SDS_P2;PMS_P1;PMS_P2;Temp;Humidity;BMP_temperature;BMP_pressure;BME280_temperature;BME280_humidity;BME280_pressure;Samples;Min_cycle;Max_cycle;Signal;HPM_P1;HPM_P2
2022/05/21 00:00:30;;;;;;;5.00;3.80;;;21.50;99.90;;;;;;5055779;28;20231;-59
2022/05/21 00:02:56;;;;;;;6.07;3.40;;;21.50;99.90;;;;;;5055436;28;20640;-60
2022/05/21 00:05:23;;;;;;;5.40;4.03;;;21.50;99.90;;;;;;5055086;28;20218;-55
2022/05/21 00:07:49;;;;;;;6.47;4.00;;;21.40;99.90;;;;;;5055121;28;20616;-57
2022/05/21 00:10:16;;;;;;;6.25;3.78;;;21.40;99.90;;;;;;5055502;28;20216;-60
2022/05/21 00:12:43;;;;;;;6.55;3.50;;;21.30;99.90;;;;;;5055273;28;20205;-54
2022/05/21 00:15:10;;;;;;;5.50;3.33;;;21.30;99.90;;;;;;5055035;28;20179;-59
2022/05/21 00:17:36;;;;;;;5.63;3.67;;;21.20;99.90;;;;;;5055204;28;20196;-57
2022/05/21 00:20:02;;;;;;;6.05;3.38;;;21.20;99.90;;;;;;5055154;28;20204;-57
2022/05/21 00:22:28;;;;;;;5.93;3.80;;;21.10;99.90;;;;;;5055126;28;20184;-54
2022/05/21 00:24:54;;;;;;;7.03;3.13;;;21.10;99.90;;;;;;5054872;28;20187;-58
2022/05/21 00:27:20;;;;;;;5.97;3.30;;;21.10;99.90;;;;;;5054658;28;20199;-58
2022/05/21 00:29:45;;;;;;;8.25;3.88;;;21.10;99.90;;;;;;5054958;28;20275;-59
2022/05/21 00:32:11;;;;;;;4.72;3.42;;;21.10;99.90;;;;;;5037132;28;20784;-56
2022/05/21 00:34:37;;;;;;;8.98;3.95;;;21.10;99.90;;;;;;5054594;28;20532;-57
2022/05/21 00:37:03;;;;;;;6.40;3.42;;;21.10;99.90;;;;;;5054838;28;20169;-57
2022/05/21 00:39:29;;;;;;;5.70;3.88;;;21.20;99.90;;;;;;5054692;28;20258;-56
2022/05/21 00:41:54;;;;;;;3.80;3.40;;;21.10;99.90;;;;;;5054786;28;20181;-59
2022/05/21 00:44:20;;;;;;;9.70;4.03;;;21.20;99.90;;;;;;5054393;28;20191;-57
2022/05/21 00:46:48;;;;;;;7.47;3.85;;;21.20;99.90;;;;;;5054718;28;20183;-56
2022/05/21 00:49:19;;;;;;;5.78;3.83;;;21.00;99.90;;;;;;5054440;28;20203;-58
2022/05/21 00:51:52;;;;;;;7.05;3.78;;;21.00;99.90;;;;;;5054725;28;20321;-56
2022/05/21 00:54:22;;;;;;;7.85;4.05;;;20.90;99.90;;;;;;5054318;28;20232;-58
2022/05/21 00:57:10;;;;;;;9.53;4.23;;;20.70;99.90;;;;;;5054120;28;20176;-57
2022/05/21 00:59:49;;;;;;;10.83;4.17;;;20.40;99.90;;;;;;5054583;28;20329;-57
2022/05/21 01:02:28;;;;;;;7.37;4.20;;;20.30;99.90;;;;;;5038810;28;20656;-57
2022/05/21 01:04:56;;;;;;;14.23;4.40;;;20.30;99.90;;;;;;5053614;28;20527;-57
2022/05/21 01:07:25;;;;;;;5.00;3.93;;;20.20;99.90;;;;;;5054215;28;20199;-58
2022/05/21 01:09:56;;;;;;;9.33;4.30;;;20.20;99.90;;;;;;5054198;28;20187;-57
2022/05/21 01:12:25;;;;;;;8.27;4.57;;;20.10;99.90;;;;;;5054363;28;20178;-56
2022/05/21 01:14:54;;;;;;;7.93;4.30;;;20.10;99.90;;;;;;5054023;28;20178;-54
2022/05/21 01:17:21;;;;;;;9.00;4.57;;;19.90;99.90;;;;;;5036357;28;20176;-52
2022/05/21 01:20:18;;;;;;;7.07;4.60;;;19.80;99.90;;;;;;5054021;28;20205;-53
2022/05/21 01:22:52;;;;;;;6.80;4.20;;;19.90;99.90;;;;;;5052747;28;20188;-54
2022/05/21 01:25:24;;;;;;;7.70;4.57;;;19.90;99.90;;;;;;5053647;28;20180;-55
2022/05/21 01:27:51;;;;;;;6.20;4.40;;;20.00;99.90;;;;;;5053491;28;20225;-55
2022/05/21 01:30:32;;;;;;;8.47;4.17;;;20.10;99.90;;;;;;5053781;28;20574;-58
2022/05/21 01:33:01;;;;;;;5.10;4.60;;;20.20;99.90;;;;;;5053901;28;20171;-55
2022/05/21 01:35:27;;;;;;;8.57;4.37;;;20.30;99.90;;;;;;5053432;28;20175;-53
2022/05/21 01:37:53;;;;;;;6.53;4.40;;;20.40;99.90;;;;;;5053501;28;20182;-52
2022/05/21 01:40:19;;;;;;;7.17;4.53;;;20.30;99.90;;;;;;5055004;28;20183;-57
2022/05/21 01:44:37;;;;;;;5.93;4.27;;;20.30;99.90;;;;;;5035774;28;20186;-55
2022/05/21 01:45:30;;;;;;;7.10;4.33;;;20.20;99.90;;;;;;5053293;28;20174;-56
2022/05/21 01:47:56;;;;;;;11.67;5.00;;;19.90;99.90;;;;;;5053426;28;20576;-56
2022/05/21 01:50:21;;;;;;;6.87;4.30;;;20.00;99.90;;;;;;5053509;28;20171;-57
2022/05/21 01:52:47;;;;;;;7.90;4.13;;;19.90;99.90;;;;;;5053449;28;20175;-55
2022/05/21 01:55:12;;;;;;;7.23;4.47;;;19.80;99.90;;;;;;5053116;28;20167;-52
2022/05/21 01:57:38;;;;;;;5.50;4.23;;;19.80;99.90;;;;;;5053372;28;20175;-56
2022/05/21 02:00:04;;;;;;;7.67;4.23;;;19.70;99.90;;;;;;5053215;28;20202;-56
2022/05/21 02:02:30;;;;;;;5.10;4.20;;;19.60;99.90;;;;;;5053196;28;20187;-52
2022/05/21 02:04:55;;;;;;;9.93;4.47;;;19.60;99.90;;;;;;5053008;28;20191;-56
2022/05/21 02:07:21;;;;;;;6.73;4.97;;;19.70;99.90;;;;;;5053043;28;20284;-52
2022/05/21 02:09:46;;;;;;;9.03;4.40;;;19.80;99.90;;;;;;5053006;28;20618;-53
2022/05/21 02:12:16;;;;;;;7.43;4.50;;;19.70;99.90;;;;;;5053066;28;20229;-58
2022/05/21 02:14:42;;;;;;;6.53;4.33;;;19.80;99.90;;;;;;5052811;28;20189;-54
2022/05/21 02:17:08;;;;;;;6.77;4.77;;;19.80;99.90;;;;;;5052902;28;20217;-52
2022/05/21 02:19:33;;;;;;;6.00;4.63;;;19.80;99.90;;;;;;5052410;28;20560;-55
2022/05/21 02:21:59;;;;;;;6.10;4.60;;;19.70;99.90;;;;;;5052560;28;20171;-55
2022/05/21 02:24:24;;;;;;;8.83;4.07;;;19.50;99.90;;;;;;5052619;28;20168;-55
2022/05/21 02:26:50;;;;;;;5.70;4.57;;;19.40;99.90;;;;;;5052784;28;20699;-54
2022/05/21 02:29:15;;;;;;;6.73;4.53;;;19.20;99.90;;;;;;5052517;28;20206;-56
2022/05/21 02:31:41;;;;;;;5.27;4.43;;;19.10;99.90;;;;;;5052575;28;20210;-58
2022/05/21 02:34:06;;;;;;;6.40;4.67;;;19.10;99.90;;;;;;5052414;28;20236;-53
2022/05/21 02:39:25;;;;;;;5.80;4.83;;;19.00;99.90;;;;;;5052429;28;20240;-57
2022/05/21 02:41:51;;;;;;;5.40;4.50;;;19.10;99.90;;;;;;5052642;28;20171;-55
2022/05/21 02:44:16;;;;;;;6.57;4.70;;;19.10;99.90;;;;;;5052211;28;20169;-56
2022/05/21 02:46:42;;;;;;;5.20;4.63;;;19.10;99.90;;;;;;5052441;28;20165;-56
2022/05/21 02:49:07;;;;;;;7.67;4.40;;;19.00;99.90;;;;;;5052095;28;20699;-58
2022/05/21 02:51:33;;;;;;;4.87;4.37;;;19.00;99.90;;;;;;5052374;28;20182;-57
2022/05/21 02:53:58;;;;;;;6.43;4.90;;;19.00;99.90;;;;;;5051981;28;20182;-54
2022/05/21 02:56:24;;;;;;;5.57;4.50;;;19.00;99.90;;;;;;5052073;28;20167;-54
2022/05/21 02:58:49;;;;;;;5.80;4.67;;;18.90;99.90;;;;;;5051915;28;20196;-56
2022/05/21 03:01:15;;;;;;;11.20;4.90;;;18.90;99.90;;;;;;5051987;28;20634;-58
2022/05/21 03:03:41;;;;;;;8.23;4.47;;;18.80;99.90;;;;;;5051722;28;20175;-55
2022/05/21 03:06:06;;;;;;;8.13;5.00;;;18.80;99.90;;;;;;5052114;28;20207;-53
2022/05/21 03:11:16;;;;;;;6.40;4.47;;;18.60;99.90;;;;;;5052114;28;20205;-56
2022/05/21 03:13:41;;;;;;;8.57;4.73;;;18.50;99.90;;;;;;5051758;28;20198;-56
2022/05/21 03:16:07;;;;;;;7.87;4.47;;;18.50;99.90;;;;;;5051941;28;20225;-55
2022/05/21 03:18:33;;;;;;;6.53;4.77;;;18.50;99.90;;;;;;5051508;28;20195;-56
2022/05/21 03:20:58;;;;;;;7.00;4.77;;;18.60;99.90;;;;;;5051413;28;20176;-59
2022/05/21 03:23:24;;;;;;;6.30;4.43;;;18.40;99.90;;;;;;5051583;28;20264;-54
2022/05/21 03:25:49;;;;;;;6.90;4.80;;;18.50;99.90;;;;;;5051648;28;20175;-57
2022/05/21 03:28:18;;;;;;;6.90;4.70;;;18.60;99.90;;;;;;5051479;28;20226;-58
2022/05/21 03:30:43;;;;;;;7.27;4.50;;;18.60;99.90;;;;;;5051604;28;20603;-55
2022/05/21 03:33:09;;;;;;;7.53;4.87;;;18.50;99.90;;;;;;5051689;28;20179;-56
2022/05/21 03:35:35;;;;;;;7.87;4.90;;;18.50;99.90;;;;;;5051332;28;20176;-55
2022/05/21 03:38:01;;;;;;;6.80;4.63;;;18.40;99.90;;;;;;5051474;28;20192;-57
2022/05/21 03:40:29;;;;;;;6.70;4.63;;;18.40;99.90;;;;;;5051742;28;20175;-57
2022/05/21 03:42:55;;;;;;;5.63;4.20;;;18.40;99.90;;;;;;5051734;28;20183;-58
2022/05/21 03:45:21;;;;;;;6.10;4.20;;;18.30;99.90;;;;;;5051168;28;20175;-59
2022/05/21 03:47:47;;;;;;;5.03;4.47;;;18.20;99.90;;;;;;5051477;28;20207;-59
2022/05/21 03:50:16;;;;;;;5.60;4.30;;;18.10;99.90;;;;;;5051906;28;20164;-57
2022/05/21 03:52:42;;;;;;;5.83;4.43;;;18.20;99.90;;;;;;5051633;28;20195;-58
2022/05/21 03:55:08;;;;;;;7.43;4.80;;;18.10;99.90;;;;;;5051398;28;20199;-54
2022/05/21 03:57:34;;;;;;;6.00;4.23;;;18.10;99.90;;;;;;5051479;28;20171;-56
2022/05/21 04:00:00;;;;;;;4.73;4.30;;;18.10;99.90;;;;;;5051392;28;20198;-57
2022/05/21 04:02:26;;;;;;;5.07;4.47;;;18.10;99.90;;;;;;5051714;28;20179;-54
2022/05/21 04:04:52;;;;;;;5.53;4.60;;;18.20;99.90;;;;;;5033350;28;20171;-58
2022/05/21 04:07:18;;;;;;;5.77;4.00;;;18.20;99.90;;;;;;5051348;28;20189;-56
2022/05/21 04:09:44;;;;;;;6.53;4.13;;;18.20;99.90;;;;;;5050945;28;20191;-57
2022/05/21 04:12:10;;;;;;;5.37;4.40;;;18.20;99.90;;;;;;5050551;28;20221;-54
2022/05/21 04:14:35;;;;;;;5.47;4.63;;;18.30;99.90;;;;;;5050631;28;20167;-55
2022/05/21 04:17:03;;;;;;;4.67;4.10;;;18.30;99.90;;;;;;5051192;28;20255;-57
2022/05/21 04:19:29;;;;;;;4.93;4.00;;;18.40;99.90;;;;;;5051229;28;20249;-55
2022/05/21 04:21:56;;;;;;;5.40;4.90;;;18.40;99.90;;;;;;5051354;28;20274;-54
2022/05/21 04:24:22;;;;;;;6.53;4.47;;;18.40;99.90;;;;;;5051016;28;20179;-56
2022/05/21 04:26:48;;;;;;;7.17;4.50;;;18.30;99.90;;;;;;5051279;28;20529;-52
2022/05/21 04:29:15;;;;;;;6.33;4.20;;;18.40;99.90;;;;;;5050982;28;20301;-56
2022/05/21 04:31:41;;;;;;;5.50;4.33;;;18.40;99.90;;;;;;5051421;28;20175;-59
2022/05/21 04:34:06;;;;;;;6.30;4.83;;;18.20;99.90;;;;;;5053885;28;20174;-53
2022/05/21 04:36:33;;;;;;;4.50;4.10;;;18.20;99.90;;;;;;5055032;28;20194;-56
2022/05/21 04:38:59;;;;;;;5.53;4.10;;;18.10;99.90;;;;;;5054493;28;20246;-56
2022/05/21 04:41:25;;;;;;;5.43;3.93;;;18.10;99.90;;;;;;5054822;28;20207;-56
2022/05/21 04:43:52;;;;;;;4.73;3.90;;;18.20;99.90;;;;;;5054414;28;20624;-56
2022/05/21 04:46:19;;;;;;;6.67;4.30;;;18.20;99.90;;;;;;5054701;28;20176;-57
2022/05/21 04:48:46;;;;;;;5.47;3.93;;;18.10;99.90;;;;;;5054323;28;20219;-58
2022/05/21 04:51:11;;;;;;;5.43;4.27;;;18.10;99.90;;;;;;5054628;28;20190;-56
2022/05/21 04:53:37;;;;;;;6.00;4.10;;;18.10;99.90;;;;;;5054340;28;20167;-55
2022/05/21 04:56:05;;;;;;;6.00;4.10;;;18.10;99.90;;;;;;5054574;28;20172;-56
2022/05/21 04:58:31;;;;;;;4.33;3.50;;;18.10;99.90;;;;;;5054258;28;20195;-58
2022/05/21 05:00:57;;;;;;;7.00;3.90;;;18.00;99.90;;;;;;5054502;28;20267;-57
2022/05/21 05:03:23;;;;;;;4.20;3.53;;;18.00;99.90;;;;;;5054221;28;20246;-56
2022/05/21 05:05:48;;;;;;;6.47;3.87;;;18.00;99.90;;;;;;5054358;28;20206;-54
2022/05/21 05:08:16;;;;;;;4.93;3.33;;;18.00;99.90;;;;;;5054172;28;20211;-56
2022/05/21 05:10:43;;;;;;;10.43;3.67;;;18.10;99.90;;;;;;5054328;28;20175;-57
2022/05/21 05:13:09;;;;;;;3.60;3.30;;;18.10;99.90;;;;;;5054400;28;20552;-57
2022/05/21 05:15:35;;;;;;;9.00;4.20;;;18.10;99.90;;;;;;5054110;28;20233;-55
2022/05/21 05:18:07;;;;;;;4.37;3.30;;;18.10;99.90;;;;;;5036151;28;20195;-57
2022/05/21 05:20:33;;;;;;;5.77;3.30;;;18.20;99.90;;;;;;5054091;28;20167;-57
2022/05/21 05:22:58;;;;;;;5.23;3.40;;;18.20;99.90;;;;;;5054010;28;20228;-55
2022/05/21 05:25:25;;;;;;;3.40;3.10;;;18.20;99.90;;;;;;5053586;28;20549;-60
2022/05/21 05:27:51;;;;;;;4.30;3.00;;;18.10;99.90;;;;;;5053764;28;20207;-59
2022/05/21 05:30:18;;;;;;;4.87;2.97;;;18.20;99.90;;;;;;5054011;28;20174;-60
2022/05/21 05:32:44;;;;;;;3.90;3.30;;;18.20;99.90;;;;;;5053987;28;20174;-54
2022/05/21 05:35:11;;;;;;;3.43;3.13;;;18.20;99.90;;;;;;5042583;28;20650;-55
2022/05/21 05:37:37;;;;;;;6.63;3.30;;;18.30;99.90;;;;;;5023901;28;20173;-55
2022/05/21 05:40:04;;;;;;;6.10;3.27;;;18.40;99.90;;;;;;5013736;28;20224;-52
2022/05/21 05:42:30;;;;;;;3.60;3.30;;;18.30;99.90;;;;;;5030468;28;20645;-57
2022/05/21 05:44:56;;;;;;;4.40;3.30;;;18.20;99.90;;;;;;5033127;28;20180;-55
2022/05/21 05:47:22;;;;;;;3.83;3.10;;;18.30;99.90;;;;;;5033579;28;20178;-58
2022/05/21 05:49:47;;;;;;;4.07;2.97;;;18.30;99.90;;;;;;5033584;28;20191;-57
2022/05/21 05:52:13;;;;;;;4.33;2.90;;;18.40;99.90;;;;;;5033623;28;20164;-57
2022/05/21 05:54:38;;;;;;;4.07;3.20;;;18.50;99.90;;;;;;5016743;28;20184;-57
2022/05/21 05:57:09;;;;;;;4.33;3.57;;;18.30;99.90;;;;;;5023480;28;20212;-54
2022/05/21 05:59:48;;;;;;;4.07;3.50;;;18.30;99.90;;;;;;5033392;28;20188;-58
2022/05/21 06:04:59;;;;;;;5.13;3.50;;;18.20;99.90;;;;;;5033339;28;20660;-60
2022/05/21 06:07:25;;;;;;;4.47;3.47;;;18.20;99.90;;;;;;5033140;28;20180;-62
2022/05/21 06:09:50;;;;;;;4.50;3.20;;;18.30;99.90;;;;;;5033204;28;20673;-60
2022/05/21 06:12:16;;;;;;;5.07;3.30;;;18.20;99.90;;;;;;5015482;28;20685;-61
2022/05/21 06:14:42;;;;;;;4.17;3.20;;;18.20;99.90;;;;;;5032988;28;20540;-58
2022/05/21 06:17:09;;;;;;;5.00;3.00;;;18.20;99.90;;;;;;5032985;28;20637;-59
2022/05/21 06:19:35;;;;;;;4.73;2.93;;;18.10;99.90;;;;;;5032834;28;20246;-61
2022/05/21 06:22:02;;;;;;;7.33;3.10;;;18.30;99.90;;;;;;5032955;28;20184;-60
2022/05/21 06:24:29;;;;;;;5.97;3.13;;;18.30;99.90;;;;;;5020841;28;20291;-61
2022/05/21 06:26:54;;;;;;;4.30;3.10;;;18.20;99.90;;;;;;5033083;28;20534;-60
2022/05/21 06:29:20;;;;;;;3.20;3.00;;;18.20;99.90;;;;;;5032784;28;20203;-62
2022/05/21 06:31:46;;;;;;;3.33;3.00;;;18.50;99.90;;;;;;5013822;28;20180;-60
2022/05/21 06:34:11;;;;;;;3.33;3.00;;;18.50;99.90;;;;;;5032392;28;20649;-62
2022/05/21 06:36:37;;;;;;;3.50;3.20;;;18.70;99.90;;;;;;5015773;28;20176;-61
2022/05/21 06:39:03;;;;;;;3.90;3.07;;;18.80;99.90;;;;;;4996216;28;20220;-60
2022/05/21 06:41:31;;;;;;;2.87;2.60;;;18.90;99.90;;;;;;5012852;28;20180;-61
2022/05/21 06:43:57;;;;;;;5.53;2.93;;;19.00;99.90;;;;;;5013507;28;20181;-61
2022/05/21 06:46:22;;;;;;;6.50;2.73;;;19.10;99.90;;;;;;5017670;28;20180;-60
2022/05/21 06:48:48;;;;;;;3.77;3.17;;;18.90;99.90;;;;;;5019984;28;20759;-56
2022/05/21 06:51:14;;;;;;;3.93;2.60;;;18.70;99.90;;;;;;5033084;28;20203;-60
2022/05/21 06:53:40;;;;;;;3.93;3.03;;;18.60;99.90;;;;;;5025865;28;20192;-56
2022/05/21 06:56:10;;;;;;;4.10;2.70;;;18.50;99.90;;;;;;5022575;28;20166;-60
2022/05/21 06:58:37;;;;;;;3.47;2.83;;;18.60;99.90;;;;;;5032277;28;20196;-58
2022/05/21 07:01:02;;;;;;;3.50;3.10;;;18.70;99.90;;;;;;5019759;28;20176;-61
2022/05/21 07:03:28;;;;;;;3.07;2.53;;;18.80;99.90;;;;;;5013892;28;20245;-61
2022/05/21 07:08:38;;;;;;;3.07;2.80;;;19.10;99.90;;;;;;5003865;28;20219;-59
2022/05/21 07:11:03;;;;;;;3.67;2.30;;;19.10;99.90;;;;;;5021927;28;20168;-61
2022/05/21 07:13:30;;;;;;;3.30;2.30;;;18.90;99.90;;;;;;5022550;28;20649;-59
2022/05/21 07:15:56;;;;;;;4.10;2.37;;;18.70;99.90;;;;;;5017361;28;20610;-57
2022/05/21 07:18:24;;;;;;;5.17;2.60;;;18.60;99.90;;;;;;5023247;28;20229;-56
2022/05/21 07:20:50;;;;;;;2.40;2.20;;;18.50;99.90;;;;;;5017363;28;20226;-55
2022/05/21 07:23:17;;;;;;;3.20;2.50;;;18.40;99.90;;;;;;4997204;28;20176;-58
2022/05/21 07:25:42;;;;;;;3.07;2.50;;;18.40;99.90;;;;;;5026840;28;20176;-62
2022/05/21 07:28:09;;;;;;;10.33;2.90;;;18.60;99.90;;;;;;5031762;28;20285;-56
2022/05/21 07:30:35;;;;;;;2.50;2.30;;;18.50;99.90;;;;;;5027610;28;20180;-56
2022/05/21 07:33:01;;;;;;;2.43;2.00;;;18.40;99.90;;;;;;5024767;28;20164;-59
2022/05/21 07:35:27;;;;;;;4.40;2.07;;;18.20;99.90;;;;;;5017279;28;20178;-55
2022/05/21 07:37:53;;;;;;;2.50;2.30;;;18.30;99.90;;;;;;5011702;28;20586;-60
2022/05/21 07:40:21;;;;;;;2.27;1.90;;;18.40;99.90;;;;;;5054168;22;20232;-56
2022/05/21 07:42:46;;;;;;;2.43;2.17;;;18.40;99.90;;;;;;5041274;28;20806;-52
2022/05/21 07:45:15;;;;;;;5.87;2.67;;;18.60;99.90;;;;;;5041269;28;20203;-53
2022/05/21 07:47:40;;;;;;;2.60;2.40;;;18.60;99.90;;;;;;5046168;28;20203;-50
2022/05/21 07:50:07;;;;;;;3.30;2.57;;;18.60;99.90;;;;;;5047311;28;20198;-54
2022/05/21 07:52:33;;;;;;;7.13;3.10;;;18.60;99.90;;;;;;5034478;28;20180;-55
2022/05/21 07:54:59;;;;;;;3.30;2.60;;;18.50;99.90;;;;;;5034273;28;20660;-52
2022/05/21 07:57:24;;;;;;;2.80;2.50;;;18.70;99.90;;;;;;5046106;28;20224;-58
2022/05/21 07:59:50;;;;;;;2.97;2.43;;;18.70;99.90;;;;;;5040745;28;20200;-59
2022/05/21 08:02:18;;;;;;;3.60;2.90;;;18.90;99.90;;;;;;5040975;28;20164;-54
2022/05/21 08:04:46;;;;;;;2.87;2.43;;;19.00;99.90;;;;;;5044754;28;20180;-56
2022/05/21 08:07:12;;;;;;;2.73;2.53;;;19.00;99.90;;;;;;5039001;28;20688;-54
2022/05/21 08:09:39;;;;;;;2.50;2.30;;;19.10;99.90;;;;;;5037330;28;20231;-55
2022/05/21 08:12:05;;;;;;;3.17;2.87;;;19.20;99.90;;;;;;5035189;28;20183;-56
2022/05/21 08:14:32;;;;;;;3.00;2.77;;;19.40;99.90;;;;;;5035090;28;20205;-56
2022/05/21 08:16:57;;;;;;;2.70;2.50;;;19.30;99.90;;;;;;5035299;28;20179;-52
2022/05/21 08:19:23;;;;;;;3.97;3.07;;;19.10;99.90;;;;;;5035252;28;20188;-56
2022/05/21 08:21:49;;;;;;;3.50;2.80;;;18.90;99.90;;;;;;5035277;28;20168;-54
2022/05/21 08:27:00;;;;;;;3.00;2.70;;;19.20;99.90;;;;;;5035461;28;20179;-56
2022/05/21 08:29:32;;;;;;;2.80;2.60;;;19.10;99.90;;;;;;5034844;28;20203;-58
2022/05/21 08:31:58;;;;;;;2.80;2.10;;;19.30;99.90;;;;;;5035259;28;20180;-53
2022/05/21 08:34:25;;;;;;;3.80;2.83;;;19.30;99.90;;;;;;5034791;28;20164;-55
2022/05/21 08:36:53;;;;;;;2.83;2.53;;;19.50;99.90;;;;;;5034976;28;20168;-55
2022/05/21 08:39:19;;;;;;;2.60;2.40;;;19.20;99.90;;;;;;5034697;28;20730;-56
2022/05/21 08:41:52;;;;;;;3.53;2.83;;;19.20;99.90;;;;;;5034973;28;20176;-54
2022/05/21 08:44:41;;;;;;;4.23;3.07;;;19.30;99.90;;;;;;5034518;28;20233;-56
2022/05/21 08:47:24;;;;;;;2.67;2.47;;;19.30;99.90;;;;;;5015047;28;20556;-53
2022/05/21 08:50:09;;;;;;;3.23;2.73;;;19.30;99.90;;;;;;5017518;28;20203;-50
2022/05/21 08:53:00;;;;;;;4.30;2.67;;;19.50;99.90;;;;;;5052656;28;20183;-55
2022/05/21 08:55:32;;;;;;;4.60;2.87;;;19.70;99.90;;;;;;5053759;28;20188;-55
2022/05/21 08:58:17;;;;;;;2.43;2.20;;;19.90;99.90;;;;;;5054515;28;20718;-57
2022/05/21 09:00:45;;;;;;;3.67;2.90;;;20.10;99.90;;;;;;5054374;28;20274;-55
2022/05/21 09:03:13;;;;;;;4.23;2.20;;;20.10;99.90;;;;;;5036516;28;20179;-56
2022/05/21 09:05:43;;;;;;;2.60;2.40;;;20.00;99.90;;;;;;5054082;28;20178;-57
2022/05/21 09:08:25;;;;;;;2.80;2.60;;;19.90;99.90;;;;;;5054113;28;20198;-55
2022/05/21 09:10:54;;;;;;;3.37;2.50;;;19.90;99.90;;;;;;5054268;28;20175;-54
2022/05/21 09:13:39;;;;;;;3.23;2.83;;;19.90;99.90;;;;;;5054173;28;20167;-53
2022/05/21 09:18:50;;;;;;;3.35;2.13;;;20.20;99.90;;;;;;5053220;28;20206;-56
2022/05/21 09:21:20;;;;;;;2.92;2.30;;;20.30;99.90;;;;;;5054044;28;20174;-56
2022/05/21 09:23:49;;;;;;;3.35;2.58;;;20.50;99.90;;;;;;5053026;28;20645;-55
2022/05/21 09:26:17;;;;;;;2.55;2.35;;;20.50;99.90;;;;;;5053698;28;20581;-57
2022/05/21 09:28:42;;;;;;;3.45;2.60;;;20.60;99.90;;;;;;5053629;28;20195;-56
2022/05/21 09:31:10;;;;;;;3.60;2.50;;;20.50;99.90;;;;;;5053846;28;20536;-55
2022/05/21 09:33:38;;;;;;;4.35;2.50;;;20.50;99.90;;;;;;5053655;28;20172;-54
2022/05/21 09:36:05;;;;;;;3.95;2.70;;;21.00;99.90;;;;;;5053780;28;20552;-53
2022/05/21 09:38:47;;;;;;;2.90;2.65;;;20.90;99.90;;;;;;5053265;28;20174;-56
2022/05/21 09:41:19;;;;;;;2.60;2.30;;;20.90;99.90;;;;;;5019407;28;20183;-54
2022/05/21 09:46:41;;;;;;;1.85;1.75;;;21.30;99.90;;;;;;5054002;28;20552;-58
2022/05/21 09:49:25;;;;;;;3.10;2.30;;;21.20;99.90;;;;;;5053456;28;20809;-54
2022/05/21 09:52:05;;;;;;;1.98;1.88;;;21.30;99.90;;;;;;5053414;28;20180;-53
2022/05/21 09:54:33;;;;;;;4.13;1.80;;;21.40;99.90;;;;;;5053136;28;20228;-53
2022/05/21 09:56:59;;;;;;;1.75;1.65;;;21.30;99.90;;;;;;5052773;28;20182;-53
2022/05/21 09:59:28;;;;;;;2.15;1.85;;;21.20;99.90;;;;;;5053146;28;20686;-54
2022/05/21 10:01:57;;;;;;;2.50;1.70;;;21.50;99.90;;;;;;5053446;28;20210;-57
2022/05/21 10:04:41;;;;;;;3.10;1.75;;;21.70;99.90;;;;;;5052997;28;20571;-57
2022/05/21 10:13:09;;;;;;;4.10;1.73;;;21.50;99.90;;;;;;5052626;28;20182;-56
2022/05/21 10:15:50;;;;;;;1.55;1.38;;;21.20;99.90;;;;;;5035212;28;20178;-55
2022/05/21 10:18:28;;;;;;;1.88;1.60;;;21.10;99.90;;;;;;5053097;28;20174;-53
2022/05/21 10:20:59;;;;;;;2.53;1.30;;;21.30;99.90;;;;;;5038214;28;20595;-55
2022/05/21 10:23:46;;;;;;;1.50;1.40;;;21.20;99.90;;;;;;5032807;28;20244;-52
2022/05/21 10:26:11;;;;;;;1.63;1.50;;;21.20;99.90;;;;;;5041811;28;20174;-55
2022/05/21 10:29:01;;;;;;;1.20;1.20;;;21.20;99.90;;;;;;5040786;28;20215;-54
2022/05/21 10:31:55;;;;;;;1.50;1.40;;;21.50;99.90;;;;;;5032546;28;20481;-56
2022/05/21 10:34:38;;;;;;;1.67;1.58;;;21.70;99.90;;;;;;5031316;28;20171;-55
2022/05/21 10:37:06;;;;;;;1.92;1.70;;;21.80;99.90;;;;;;5032304;28;20164;-53
2022/05/21 10:40:01;;;;;;;2.95;1.40;;;22.10;99.90;;;;;;5032519;28;20218;-55
2022/05/21 10:42:56;;;;;;;3.08;1.70;;;22.20;99.90;;;;;;5032742;28;20225;-57
2022/05/21 10:45:30;;;;;;;1.67;1.42;;;22.10;99.90;;;;;;4990536;28;20195;-56
2022/05/21 10:48:14;;;;;;;1.90;1.70;;;22.20;99.90;;;;;;4990753;28;20713;-56
2022/05/21 10:51:34;;;;;;;2.58;1.38;;;22.40;99.90;;;;;;4990614;28;20205;-55
2022/05/21 10:54:18;;;;;;;2.63;1.70;;;22.60;99.90;;;;;;4910760;29;20550;-50
2022/05/21 10:57:09;;;;;;;1.80;1.42;;;22.30;99.90;;;;;;4913782;29;20651;-54
2022/05/21 10:59:41;;;;;;;1.13;1.08;;;21.90;99.90;;;;;;4913737;29;20200;-55
2022/05/21 11:02:17;;;;;;;1.50;1.40;;;21.80;99.90;;;;;;4913926;29;20196;-51
2022/05/21 11:05:01;;;;;;;1.50;1.20;;;22.10;99.90;;;;;;4913556;29;20184;-56
2022/05/21 11:07:42;;;;;;;4.10;1.40;;;22.40;99.90;;;;;;4913760;29;20238;-55
2022/05/21 11:10:45;;;;;;;2.58;1.40;;;22.20;99.90;;;;;;4913495;29;20288;-57
2022/05/21 11:13:46;;;;;;;1.60;1.15;;;22.00;99.90;;;;;;4913568;29;20243;-57
2022/05/21 11:16:22;;;;;;;1.40;1.30;;;22.10;99.90;;;;;;4913743;29;20187;-57
2022/05/21 11:19:00;;;;;;;3.55;1.48;;;22.40;99.90;;;;;;4913582;29;20564;-56
2022/05/21 11:21:41;;;;;;;1.58;1.40;;;22.60;99.90;;;;;;4918658;29;20175;-53
2022/05/21 11:24:28;;;;;;;2.03;1.30;;;23.00;99.90;;;;;;4951302;29;20193;-53
2022/05/21 11:27:06;;;;;;;2.20;1.00;;;23.20;99.90;;;;;;4951329;29;20186;-55
2022/05/21 11:29:40;;;;;;;1.67;1.30;;;23.10;99.90;;;;;;4976566;28;20211;-56
2022/05/21 11:37:52;;;;;;;3.08;1.15;;;22.60;99.90;;;;;;5032035;28;20206;-54
2022/05/21 11:41:24;;;;;;;1.30;1.20;;;22.50;99.90;;;;;;5031680;28;20717;-56
2022/05/21 11:47:18;;;;;;;3.35;1.10;;;22.30;99.90;;;;;;4970834;28;20270;-55
2022/05/21 11:49:57;;;;;;;1.85;1.10;;;22.30;99.90;;;;;;4970562;28;20679;-56
2022/05/21 11:52:34;;;;;;;1.30;1.20;;;22.50;99.90;;;;;;4970884;28;20174;-54
2022/05/21 11:55:12;;;;;;;4.03;1.05;;;22.60;99.90;;;;;;4970382;28;20177;-53
2022/05/21 11:57:38;;;;;;;4.63;1.15;;;22.70;99.90;;;;;;4970615;28;20193;-55
2022/05/21 12:00:29;;;;;;;1.20;1.10;;;22.70;99.90;;;;;;4970527;28;20563;-57
2022/05/21 12:02:54;;;;;;;1.00;0.90;;;22.60;99.90;;;;;;4970407;28;20248;-57
2022/05/21 12:05:34;;;;;;;2.25;1.10;;;22.40;99.70;;;;;;4970082;28;20580;-55
2022/05/21 12:08:27;;;;;;;2.22;1.15;;;22.50;99.90;;;;;;4970500;28;20556;-57
2022/05/21 12:11:07;;;;;;;1.17;0.95;;;22.50;99.90;;;;;;4968107;28;20182;-57
2022/05/21 12:13:35;;;;;;;1.77;1.30;;;22.50;99.80;;;;;;4970194;28;20232;-53
2022/05/21 12:16:20;;;;;;;1.77;1.08;;;22.40;98.40;;;;;;4970612;28;20721;-58
2022/05/21 12:18:56;;;;;;;4.32;1.20;;;22.40;99.10;;;;;;4970297;28;20261;-53
2022/05/21 12:21:28;;;;;;;1.98;1.00;;;22.60;99.90;;;;;;4970802;28;20178;-58
2022/05/21 12:23:53;;;;;;;1.85;1.00;;;22.70;99.90;;;;;;5031128;28;20172;-56
2022/05/21 12:26:24;;;;;;;1.35;1.10;;;22.70;99.30;;;;;;5031432;28;20539;-55
2022/05/21 12:28:55;;;;;;;2.10;1.00;;;22.60;99.50;;;;;;5031164;28;20277;-52
2022/05/21 12:31:31;;;;;;;2.15;1.10;;;22.60;98.20;;;;;;5031271;28;20168;-55
2022/05/21 12:34:27;;;;;;;2.47;1.00;;;22.70;99.50;;;;;;5031134;28;20164;-53
2022/05/21 12:37:18;;;;;;;2.50;1.10;;;22.90;99.90;;;;;;5031386;28;20176;-55
2022/05/21 12:40:01;;;;;;;2.75;1.02;;;23.30;97.60;;;;;;5031167;28;20294;-54
2022/05/21 12:42:42;;;;;;;1.25;0.90;;;23.50;97.00;;;;;;5031340;28;20180;-55
2022/05/21 12:45:08;;;;;;;2.10;1.00;;;23.10;96.00;;;;;;5031011;28;20168;-54
2022/05/21 12:47:41;;;;;;;3.85;1.10;;;22.80;97.20;;;;;;5031147;28;20169;-55
2022/05/21 12:50:17;;;;;;;1.33;1.15;;;22.60;97.40;;;;;;5031221;28;20203;-55
2022/05/21 12:52:46;;;;;;;2.17;0.90;;;22.40;97.40;;;;;;5031283;28;20168;-55
2022/05/21 12:55:22;;;;;;;1.20;1.10;;;22.40;97.00;;;;;;5033858;28;20187;-56
2022/05/21 12:57:49;;;;;;;1.08;1.08;;;22.40;97.00;;;;;;5034619;28;20168;-58
2022/05/21 13:00:18;;;;;;;2.00;1.00;;;22.60;98.40;;;;;;5034593;28;20188;-54
2022/05/21 13:02:52;;;;;;;1.77;1.27;;;22.60;96.40;;;;;;5034566;28;20259;-56
2022/05/21 13:05:49;;;;;;;1.48;0.95;;;22.50;96.80;;;;;;5034347;28;20259;-55
2022/05/21 13:08:15;;;;;;;2.20;1.13;;;22.40;97.30;;;;;;4992729;28;20245;-53
2022/05/21 13:10:53;;;;;;;2.45;1.40;;;22.30;96.90;;;;;;4992771;28;20236;-55
2022/05/21 13:13:21;;;;;;;1.35;1.25;;;22.40;99.00;;;;;;4992753;28;20177;-54
2022/05/21 13:15:57;;;;;;;1.85;1.10;;;22.80;98.60;;;;;;4992585;28;20182;-54
2022/05/21 13:18:37;;;;;;;1.30;1.13;;;22.90;96.60;;;;;;4992382;28;20177;-55
2022/05/21 13:21:33;;;;;;;3.40;1.20;;;22.90;96.90;;;;;;4992677;28;20177;-51
2022/05/21 13:24:05;;;;;;;2.53;1.10;;;22.90;99.90;;;;;;4992356;28;20173;-55
2022/05/21 13:26:34;;;;;;;1.50;1.40;;;22.90;97.20;;;;;;4992431;28;20192;-57
2022/05/21 13:29:26;;;;;;;1.30;1.20;;;22.90;98.60;;;;;;4992317;28;20383;-58
2022/05/21 13:31:53;;;;;;;1.30;1.20;;;23.10;98.10;;;;;;4992398;28;20185;-58
2022/05/21 13:34:34;;;;;;;1.45;1.30;;;23.10;98.10;;;;;;4992151;28;20169;-49
2022/05/21 13:37:03;;;;;;;1.23;1.20;;;23.10;97.40;;;;;;4992257;28;20252;-57